Lamnalco Berkut — UBGH3 — position and weather

sailwx.info

Track history (hours):
 
Tides and Currents Weather Stations Pressure Air Temp Water Temp Dewpoint Dewpoint Depression Visibility Wind Speed Wind Dir Waves Ship Positions

Lamnalco Berkut

Last reported at 2017-Oct-23 00:22 UTC. Time now 2017-Oct-23 00:42 UTC.
Position N 44°39' E 037°39'.

Length 24 m; draft 4.2 m.

Type: Tug. MMSI: 273359720.

Date/timePositionNaut miles runAvg speedWind from/ knotsBaromVisibWave heightAir tempDewpointWater temp
2017-Oct-23 00:22N 44°39' E 037°39'1 3.2
2017-Oct-22 23:59N 44°38' E 037°38'0 0.2
2017-Oct-22 23:20N 44°38' E 037°38'0 0.4
2017-Oct-22 23:00N 44°38' E 037°38'1 1.4
2017-Oct-22 22:15N 44°38' E 037°37'1 0.0
2017-Oct-21 22:14N 44°38' E 037°38'0 1.5
2017-Oct-21 22:00N 44°38' E 037°38'0 0.1
2017-Oct-21 21:25N 44°38' E 037°38'0 0.3
2017-Oct-21 21:00N 44°38' E 037°38'2 3.5
2017-Oct-21 20:21N 44°40' E 037°40'2 5.1
2017-Oct-21 20:00N 44°39' E 037°42'0 0.0
2017-Oct-21 19:30N 44°39' E 037°42'0 0.0
2017-Oct-21 18:57N 44°39' E 037°42'0 0.0
2017-Oct-21 18:30N 44°39' E 037°42'0 0.0
2017-Oct-21 17:59N 44°39' E 037°42'0 0.0
2017-Oct-21 17:23N 44°39' E 037°42'0 0.0
2017-Oct-21 16:55N 44°39' E 037°42'0 0.0
2017-Oct-21 16:29N 44°39' E 037°42'0 0.0
2017-Oct-21 16:00N 44°39' E 037°42'0 0.0
2017-Oct-21 15:28N 44°39' E 037°42'2 0.1
2017-Oct-20 23:04N 44°39' E 037°39'111.0
2017-Oct-20 22:58N 44°38' E 037°38'0 0.4
2017-Oct-20 21:56N 44°38' E 037°38'0 0.1
2017-Oct-20 21:30N 44°38' E 037°38'3 5.9
2017-Oct-20 21:00N 44°39' E 037°42'0 0.0
2017-Oct-20 20:30N 44°39' E 037°42'0 0.0
2017-Oct-20 19:57N 44°39' E 037°42'0 0.0
2017-Oct-20 19:30N 44°39' E 037°42'0 0.0
2017-Oct-20 19:00N 44°39' E 037°42'0 0.0
2017-Oct-20 18:29N 44°39' E 037°42'0 0.0
2017-Oct-20 18:00N 44°39' E 037°42'0 0.0
2017-Oct-20 17:29N 44°39' E 037°42'0 0.0
2017-Oct-20 16:57N 44°39' E 037°42'0 0.0
2017-Oct-20 16:30N 44°39' E 037°42'0 0.0
2017-Oct-20 16:00N 44°39' E 037°42'0 0.0
2017-Oct-20 15:29N 44°39' E 037°42'0 0.0
2017-Oct-20 15:00N 44°39' E 037°42'0 0.0
2017-Oct-20 14:00N 44°39' E 037°42'3 0.2
2017-Oct-20 02:43N 44°39' E 037°38'2 7.5
2017-Oct-20 02:30N 44°38' E 037°37'0 0.1
2017-Oct-20 01:14N 44°38' E 037°37'1 0.1
2017-Oct-19 15:32N 44°38' E 037°38'0 7.8
2017-Oct-19 15:30N 44°38' E 037°38'0 0.5
2017-Oct-19 14:57N 44°38' E 037°38'0 0.0
2017-Oct-19 14:30N 44°38' E 037°38'0 0.5
2017-Oct-19 14:00N 44°38' E 037°38'0 0.0
2017-Oct-19 13:30N 44°38' E 037°38'0 0.1
2017-Oct-19 12:58N 44°38' E 037°38'1 3.1
2017-Oct-19 12:30N 44°39' E 037°39'2 0.1
2017-Oct-18 21:06N 44°38' E 037°37'0 0.5
2017-Oct-18 20:50N 44°38' E 037°37'0 0.2
2017-Oct-18 20:04N 44°38' E 037°37'0 0.5
2017-Oct-18 19:56N 44°38' E 037°37'1 0.3
2017-Oct-18 16:04N 44°38' E 037°38'0 3.3
2017-Oct-18 15:59N 44°38' E 037°38'0 0.2
2017-Oct-18 14:00N 44°38' E 037°39'1 0.0
2017-Oct-18 00:02N 44°39' E 037°38'1 2.7
2017-Oct-17 23:34N 44°38' E 037°37'0 2.4
2017-Oct-17 23:30N 44°38' E 037°37'0 0.3
2017-Oct-17 23:00N 44°38' E 037°37'3 0.3
2017-Oct-17 12:35N 44°39' E 037°40'111.3
2017-Oct-17 12:30N 44°39' E 037°41'510.6
2017-Oct-17 12:00N 44°39' E 037°49'5 9.6
2017-Oct-17 11:31N 44°44' E 037°47'0 0.4
2017-Oct-17 11:00N 44°44' E 037°47'0 0.0
2017-Oct-17 10:30N 44°44' E 037°47'0 0.0
2017-Oct-17 10:00N 44°44' E 037°47'0 0.0
2017-Oct-17 09:30N 44°44' E 037°47'0 0.0
2017-Oct-17 09:00N 44°44' E 037°47'5 9.4
2017-Oct-17 08:30N 44°39' E 037°49'611.2
2017-Oct-17 08:00N 44°39' E 037°42'2 0.6
2017-Oct-17 04:21N 44°38' E 037°38'1 0.8
2017-Oct-17 03:42N 44°38' E 037°38'0 0.8
2017-Oct-17 03:30N 44°38' E 037°38'0 0.6
2017-Oct-17 03:00N 44°38' E 037°38'1 0.1
2017-Oct-16 17:58N 44°38' E 037°37'0 0.4
2017-Oct-16 17:30N 44°38' E 037°37'2 4.9
2017-Oct-16 17:00N 44°36' E 037°39'2 4.4
2017-Oct-16 16:29N 44°37' E 037°37'0 0.5
2017-Oct-16 15:53N 44°38' E 037°37'3 0.8
2017-Oct-16 12:18N 44°40' E 037°39'2 3.7
2017-Oct-16 11:39N 44°38' E 037°38'0 0.2
2017-Oct-16 11:25N 44°38' E 037°38'0 0.4
2017-Oct-16 11:00N 44°38' E 037°38'1 1.7
2017-Oct-16 10:30N 44°37' E 037°39'2 2.2
2017-Oct-16 09:48N 44°38' E 037°37'0 0.6
2017-Oct-16 09:29N 44°38' E 037°37'0 0.1
2017-Oct-16 08:55N 44°38' E 037°37'0 0.3
2017-Oct-16 08:30N 44°38' E 037°37'0 0.1
2017-Oct-16 08:00N 44°38' E 037°37'1 2.1
2017-Oct-16 07:30N 44°38' E 037°38'2 1.2
2017-Oct-16 05:41N 44°40' E 037°39'211.5
2017-Oct-16 05:30N 44°38' E 037°37'2 0.1
2017-Oct-15 07:14N 44°40' E 037°39'311.6
2017-Oct-15 07:00N 44°38' E 037°37'0 0.6
2017-Oct-15 06:29N 44°38' E 037°37'0 0.0
2017-Oct-15 06:00N 44°38' E 037°37'0 0.0
2017-Oct-15 05:30N 44°38' E 037°37'0 0.1
2017-Oct-15 04:59N 44°38' E 037°37'2 0.1
2017-Oct-14 04:52N 44°38' E 037°39'1 0.1
2017-Oct-13 23:11N 44°39' E 037°38'1 4.3
2017-Oct-13 22:53N 44°38' E 037°37'0 0.2
2017-Oct-13 22:22N 44°38' E 037°37'0 0.2
2017-Oct-13 21:05N 44°38' E 037°37'2 0.4
2017-Oct-13 16:24N 44°39' E 037°38'0 0.1
2017-Oct-13 11:10N 44°39' E 037°39'2 9.7
2017-Oct-13 11:00N 44°38' E 037°38'0 0.5
2017-Oct-13 10:30N 44°38' E 037°38'0 0.4
2017-Oct-13 10:00N 44°38' E 037°38'0 0.3
2017-Oct-13 09:29N 44°38' E 037°38'0 0.3
2017-Oct-13 09:00N 44°38' E 037°38'1 0.1
2017-Oct-13 00:59N 44°39' E 037°38'  
Track history (hours):
 
Tides and Currents Weather Stations Pressure Air Temp Water Temp Dewpoint Dewpoint Depression Visibility Wind Speed Wind Dir Waves Ship Positions

Lamnalco Berkut

Last reported at 2017-Oct-23 00:22 UTC. Time now 2017-Oct-23 00:42 UTC.
Position N 44°39' E 037°39'.

Length 24 m; draft 4.2 m.

Type: Tug. MMSI: 273359720.

Date/timePositionNaut miles runAvg speedWind from/ knotsBaromVisibWave heightAir tempDewpointWater temp
2017-Oct-23 00:22N 44°39' E 037°39'1 3.2
2017-Oct-22 23:59N 44°38' E 037°38'0 0.2
2017-Oct-22 23:20N 44°38' E 037°38'0 0.4
2017-Oct-22 23:00N 44°38' E 037°38'1 1.4
2017-Oct-22 22:15N 44°38' E 037°37'1 0.0
2017-Oct-21 22:14N 44°38' E 037°38'0 1.5
2017-Oct-21 22:00N 44°38' E 037°38'0 0.1
2017-Oct-21 21:25N 44°38' E 037°38'0 0.3
2017-Oct-21 21:00N 44°38' E 037°38'2 3.5
2017-Oct-21 20:21N 44°40' E 037°40'2 5.1
2017-Oct-21 20:00N 44°39' E 037°42'0 0.0
2017-Oct-21 19:30N 44°39' E 037°42'0 0.0
2017-Oct-21 18:57N 44°39' E 037°42'0 0.0
2017-Oct-21 18:30N 44°39' E 037°42'0 0.0
2017-Oct-21 17:59N 44°39' E 037°42'0 0.0
2017-Oct-21 17:23N 44°39' E 037°42'0 0.0
2017-Oct-21 16:55N 44°39' E 037°42'0 0.0
2017-Oct-21 16:29N 44°39' E 037°42'0 0.0
2017-Oct-21 16:00N 44°39' E 037°42'0 0.0
2017-Oct-21 15:28N 44°39' E 037°42'2 0.1
2017-Oct-20 23:04N 44°39' E 037°39'111.0
2017-Oct-20 22:58N 44°38' E 037°38'0 0.4
2017-Oct-20 21:56N 44°38' E 037°38'0 0.1
2017-Oct-20 21:30N 44°38' E 037°38'3 5.9
2017-Oct-20 21:00N 44°39' E 037°42'0 0.0
2017-Oct-20 20:30N 44°39' E 037°42'0 0.0
2017-Oct-20 19:57N 44°39' E 037°42'0 0.0
2017-Oct-20 19:30N 44°39' E 037°42'0 0.0
2017-Oct-20 19:00N 44°39' E 037°42'0 0.0
2017-Oct-20 18:29N 44°39' E 037°42'0 0.0
2017-Oct-20 18:00N 44°39' E 037°42'0 0.0
2017-Oct-20 17:29N 44°39' E 037°42'0 0.0
2017-Oct-20 16:57N 44°39' E 037°42'0 0.0
2017-Oct-20 16:30N 44°39' E 037°42'0 0.0
2017-Oct-20 16:00N 44°39' E 037°42'0 0.0
2017-Oct-20 15:29N 44°39' E 037°42'0 0.0
2017-Oct-20 15:00N 44°39' E 037°42'0 0.0
2017-Oct-20 14:00N 44°39' E 037°42'3 0.2
2017-Oct-20 02:43N 44°39' E 037°38'2 7.5
2017-Oct-20 02:30N 44°38' E 037°37'0 0.1
2017-Oct-20 01:14N 44°38' E 037°37'1 0.1
2017-Oct-19 15:32N 44°38' E 037°38'0 7.8
2017-Oct-19 15:30N 44°38' E 037°38'0 0.5
2017-Oct-19 14:57N 44°38' E 037°38'0 0.0
2017-Oct-19 14:30N 44°38' E 037°38'0 0.5
2017-Oct-19 14:00N 44°38' E 037°38'0 0.0
2017-Oct-19 13:30N 44°38' E 037°38'0 0.1
2017-Oct-19 12:58N 44°38' E 037°38'1 3.1
2017-Oct-19 12:30N 44°39' E 037°39'2 0.1
2017-Oct-18 21:06N 44°38' E 037°37'0 0.5
2017-Oct-18 20:50N 44°38' E 037°37'0 0.2
2017-Oct-18 20:04N 44°38' E 037°37'0 0.5
2017-Oct-18 19:56N 44°38' E 037°37'1 0.3
2017-Oct-18 16:04N 44°38' E 037°38'0 3.3
2017-Oct-18 15:59N 44°38' E 037°38'0 0.2
2017-Oct-18 14:00N 44°38' E 037°39'1 0.0
2017-Oct-18 00:02N 44°39' E 037°38'1 2.7
2017-Oct-17 23:34N 44°38' E 037°37'0 2.4
2017-Oct-17 23:30N 44°38' E 037°37'0 0.3
2017-Oct-17 23:00N 44°38' E 037°37'3 0.3
2017-Oct-17 12:35N 44°39' E 037°40'111.3
2017-Oct-17 12:30N 44°39' E 037°41'510.6
2017-Oct-17 12:00N 44°39' E 037°49'5 9.6
2017-Oct-17 11:31N 44°44' E 037°47'0 0.4
2017-Oct-17 11:00N 44°44' E 037°47'0 0.0
2017-Oct-17 10:30N 44°44' E 037°47'0 0.0
2017-Oct-17 10:00N 44°44' E 037°47'0 0.0
2017-Oct-17 09:30N 44°44' E 037°47'0 0.0
2017-Oct-17 09:00N 44°44' E 037°47'5 9.4
2017-Oct-17 08:30N 44°39' E 037°49'611.2
2017-Oct-17 08:00N 44°39' E 037°42'2 0.6
2017-Oct-17 04:21N 44°38' E 037°38'1 0.8
2017-Oct-17 03:42N 44°38' E 037°38'0 0.8
2017-Oct-17 03:30N 44°38' E 037°38'0 0.6
2017-Oct-17 03:00N 44°38' E 037°38'1 0.1
2017-Oct-16 17:58N 44°38' E 037°37'0 0.4
2017-Oct-16 17:30N 44°38' E 037°37'2 4.9
2017-Oct-16 17:00N 44°36' E 037°39'2 4.4
2017-Oct-16 16:29N 44°37' E 037°37'0 0.5
2017-Oct-16 15:53N 44°38' E 037°37'3 0.8
2017-Oct-16 12:18N 44°40' E 037°39'2 3.7
2017-Oct-16 11:39N 44°38' E 037°38'0 0.2
2017-Oct-16 11:25N 44°38' E 037°38'0 0.4
2017-Oct-16 11:00N 44°38' E 037°38'1 1.7
2017-Oct-16 10:30N 44°37' E 037°39'2 2.2
2017-Oct-16 09:48N 44°38' E 037°37'0 0.6
2017-Oct-16 09:29N 44°38' E 037°37'0 0.1
2017-Oct-16 08:55N 44°38' E 037°37'0 0.3
2017-Oct-16 08:30N 44°38' E 037°37'0 0.1
2017-Oct-16 08:00N 44°38' E 037°37'1 2.1
2017-Oct-16 07:30N 44°38' E 037°38'2 1.2
2017-Oct-16 05:41N 44°40' E 037°39'211.5
2017-Oct-16 05:30N 44°38' E 037°37'2 0.1
2017-Oct-15 07:14N 44°40' E 037°39'311.6
2017-Oct-15 07:00N 44°38' E 037°37'0 0.6
2017-Oct-15 06:29N 44°38' E 037°37'0 0.0
2017-Oct-15 06:00N 44°38' E 037°37'0 0.0
2017-Oct-15 05:30N 44°38' E 037°37'0 0.1
2017-Oct-15 04:59N 44°38' E 037°37'2 0.1
2017-Oct-14 04:52N 44°38' E 037°39'1 0.1
2017-Oct-13 23:11N 44°39' E 037°38'1 4.3
2017-Oct-13 22:53N 44°38' E 037°37'0 0.2
2017-Oct-13 22:22N 44°38' E 037°37'0 0.2
2017-Oct-13 21:05N 44°38' E 037°37'2 0.4
2017-Oct-13 16:24N 44°39' E 037°38'0 0.1
2017-Oct-13 11:10N 44°39' E 037°39'2 9.7
2017-Oct-13 11:00N 44°38' E 037°38'0 0.5
2017-Oct-13 10:30N 44°38' E 037°38'0 0.4
2017-Oct-13 10:00N 44°38' E 037°38'0 0.3
2017-Oct-13 09:29N 44°38' E 037°38'0 0.3
2017-Oct-13 09:00N 44°38' E 037°38'1 0.1
2017-Oct-13 00:59N 44°39' E 037°38'  

Dump ship's entire track history